Hlavní strana
METAR-TAF:

METAR-TAF

Letiště :

Mauricius, Mauritius

zeměpisná šířka: 20-26S, zeměpisná délka: 057-40E, výška: 55 m

Aktuální stav počasí

Zpráva byla vytvořena před 44 minutami, v 08:00 UTC
Východojihovýchodní vítr 13 kt
Teplota 26°C
Vlhkost vzduchu 61%
Tlak 1022 hPa
Viditelnost 10 km a více
Polojasno ve výšce 1700 ft

METAR: FIMP 200800Z 12013KT 9999 SCT017 26/18 Q1022

Čas: 12:44 (08:44 UTC)

Předpověď počasí

Zpráva byla vytvořena před 3 hodinami a 44 minutami, v 05:00 UTC
Předpověď platná od 20 v 06 UTC do 21 v 12 UTC
Východojihovýchodní vítr 12 kt
Viditelnost 10 km a více
Polojasno ve výšce 1700 ft
Pravděpodobnost 30% :
Dočasný
od 20 v 15 UTC do 21 v 02 UTC
Viditelnost: 7000 m
Skoro jasno ve výšce 1000 ft
Polojasno ve výšce 1500 ft
Oblačno až skoro zataženo ve výšce 5000 ft
slabé dešťové přeháňky

TAF: FIMP 200500Z 2006/2112 11012KT 9999 SCT017 PROB30 TEMPO 2015/2102 7000 -SHRA FEW010 SCT015 BKN050

Stav a předpovědi počasí z více než 4 000 letišť (zprávy METAR a TAF).

Červené a žluté tečky na mapě představují dostupné meteorologické stanice.

Když kurzor umístíte na tečku, zobrazí se název stanice.

Pak kliknutím zobrazíte stav a předpověď počasí.

Chcete-li změnit mapu, kliknutím na zelené tlačítko se znaménkem +mapu přiblížíte, kliknutím na zelené tlačítko se znaménkem – mapu oddálíte a kliknutím na zelené šipky přejdete na sousední mapy.


METAR-TAF: